メインページ
METAR-TAF:

METAR-TAF

空港 :

ダマスカス国際空港

ダマスカス, シリア

緯度: 33-25N, 経度: 036-31E, 海抜: 608m

現時点の気象観測

当レポートは34分前の18:00(UTC)に作成
南/南西の風 18kt
気温 27°C
湿度 51%
気圧 1009 hPa
視程10km以上
1,500メートル以下は雲なし、積乱雲なし

METAR: OSDI 151800Z 21018KT CAVOK 27/16 Q1009

時間: 21:34 (18:34 UTC)

予報

予報は15日の 18時(UTC)から 16日の 24時(UTC)まで有効
南西の風 10kt
視程10km以上
1,500メートル以下は雲なし、積乱雲なし
16日の 12時(UTC)から 16日の 18時(UTC)まで一時的に
西/南西の風 15kt、最大25ktの突風を伴う
高度3000ftの雲はほとんどない

TAF: OSDI 1518/1624 22010KT CAVOK TEMPO 1612/1618 24015G25KT 999 FEW030

4,000以上の空港の気象観測と天気予報(METAR報とTAF報)

利用可能な観測所は地図上に黄色い丸と赤い丸で示す。

丸の上にカーソルを重ねると観測所名を参照できる。

次にクリックすると気象観測と天気予報を参照できる。

マップの切り替え:黒色「×」印の緑ボタンをクリックして拡大、「-」印の緑ボタンをクリックして縮小、緑色の三角印をクリックして隣りの地図に切り替え


METAR-TAF: